createdAt,value
2019-05-11T00:01:24.403Z,8.30
2019-05-11T00:03:52.880Z,8.20
2019-05-11T00:06:21.318Z,8.20
2019-05-11T00:08:49.820Z,8.30
2019-05-11T00:11:18.499Z,8.30
2019-05-11T00:13:46.937Z,8.30
2019-05-11T00:16:18.935Z,8.20
2019-05-11T00:18:45.515Z,8.20
2019-05-11T00:21:13.954Z,8.20
2019-05-11T00:23:42.632Z,8.00
2019-05-11T00:26:11.049Z,8.00
2019-05-11T00:28:39.473Z,8.00
2019-05-11T00:31:07.905Z,8.00
2019-05-11T00:33:36.329Z,8.10
2019-05-11T00:36:04.759Z,8.00
2019-05-11T00:38:33.191Z,8.00
2019-05-11T00:41:01.867Z,8.00
2019-05-11T00:43:30.300Z,8.00
2019-05-11T00:45:58.732Z,8.00
2019-05-11T00:48:27.169Z,8.00
2019-05-11T00:50:55.608Z,8.00
2019-05-11T00:53:24.035Z,8.00
2019-05-11T00:55:52.529Z,8.00
2019-05-11T00:58:20.970Z,7.90
2019-05-11T01:00:49.380Z,7.90
2019-05-11T01:03:17.833Z,7.80
2019-05-11T01:05:46.258Z,7.80
2019-05-11T01:08:14.693Z,7.90
2019-05-11T01:10:43.128Z,7.80
2019-05-11T01:13:11.661Z,7.80
2019-05-11T01:15:40.204Z,7.90
2019-05-11T01:18:08.633Z,7.80
2019-05-11T01:20:37.052Z,7.90
2019-05-11T01:23:05.511Z,7.90
2019-05-11T01:25:33.940Z,7.80
2019-05-11T01:28:02.369Z,7.80
2019-05-11T01:30:30.789Z,7.80
2019-05-11T01:32:59.215Z,7.80
2019-05-11T01:35:27.637Z,7.80
2019-05-11T01:37:56.141Z,7.80
2019-05-11T01:40:24.573Z,7.70
2019-05-11T01:42:53.008Z,7.60
2019-05-11T01:45:21.437Z,7.60
2019-05-11T01:47:49.865Z,7.40
2019-05-11T01:50:18.309Z,7.50
2019-05-11T01:52:46.722Z,7.50
2019-05-11T01:55:15.163Z,7.60
2019-05-11T01:57:43.588Z,7.60
2019-05-11T02:00:12.353Z,7.60
2019-05-11T02:02:40.849Z,7.60
2019-05-11T02:05:27.161Z,7.60
2019-05-11T02:07:55.934Z,7.50
2019-05-11T02:10:24.435Z,7.50
2019-05-11T02:12:53.225Z,7.50
2019-05-11T02:15:21.661Z,7.40
2019-05-11T02:17:50.091Z,7.50
2019-05-11T02:20:18.860Z,7.40
2019-05-11T02:22:47.277Z,7.40
2019-05-11T02:25:15.855Z,7.30
2019-05-11T02:27:44.318Z,7.20
2019-05-11T02:30:13.051Z,7.30
2019-05-11T02:32:41.490Z,7.40
2019-05-11T02:35:10.381Z,7.40
2019-05-11T02:37:39.725Z,7.30
2019-05-11T02:40:08.694Z,7.40
2019-05-11T02:42:37.119Z,7.40
2019-05-11T02:45:08.846Z,7.50
2019-05-11T02:47:37.280Z,7.60
2019-05-11T02:50:06.039Z,7.60
2019-05-11T02:52:35.230Z,7.70
2019-05-11T02:55:03.934Z,7.80
2019-05-11T02:57:32.438Z,7.80
2019-05-11T03:00:00.875Z,7.70
2019-05-11T03:02:29.373Z,7.40
2019-05-11T03:04:57.797Z,7.30
2019-05-11T03:07:26.214Z,7.30
2019-05-11T03:09:54.639Z,7.40
2019-05-11T03:12:23.084Z,7.40
2019-05-11T03:14:51.570Z,7.30
2019-05-11T03:17:21.655Z,7.20
2019-05-11T03:19:50.076Z,7.10
2019-05-11T03:22:18.515Z,7.00
2019-05-11T03:24:46.939Z,7.00
2019-05-11T03:27:15.377Z,6.90
2019-05-11T03:29:43.868Z,7.00
2019-05-11T03:32:12.298Z,7.00
2019-05-11T03:34:40.989Z,6.90
2019-05-11T03:37:09.660Z,6.90
2019-05-11T03:39:38.082Z,6.80
2019-05-11T03:42:14.778Z,6.80
2019-05-11T03:44:36.671Z,6.90
2019-05-11T03:47:05.104Z,7.00
2019-05-11T03:49:33.530Z,7.00
2019-05-11T03:52:01.976Z,7.10
2019-05-11T03:54:30.465Z,7.20
2019-05-11T03:56:58.906Z,7.20
2019-05-11T03:59:27.339Z,7.20
2019-05-11T04:01:55.768Z,7.10
2019-05-11T04:04:24.188Z,7.10
2019-05-11T04:06:52.612Z,7.10
2019-05-11T04:09:21.045Z,7.10
2019-05-11T04:11:49.471Z,7.00
2019-05-11T04:14:17.913Z,7.00
2019-05-11T04:16:46.326Z,7.00
2019-05-11T04:19:14.754Z,6.90
2019-05-11T04:21:43.172Z,6.90
2019-05-11T04:24:11.601Z,7.00
2019-05-11T04:26:40.032Z,7.10
2019-05-11T04:29:08.460Z,7.20
2019-05-11T04:31:37.130Z,7.30
2019-05-11T04:34:05.807Z,7.30
2019-05-11T04:36:34.238Z,7.30
2019-05-11T04:39:04.206Z,7.50
2019-05-11T04:41:32.618Z,7.60
2019-05-11T04:44:01.053Z,7.70
2019-05-11T04:46:29.486Z,7.60
2019-05-11T04:48:57.907Z,7.50
2019-05-11T04:51:27.212Z,7.40
2019-05-11T04:53:55.637Z,7.30
2019-05-11T04:56:24.066Z,7.30
2019-05-11T04:58:52.491Z,7.30
2019-05-11T05:01:20.911Z,7.30
2019-05-11T05:03:54.110Z,7.50
2019-05-11T05:06:24.479Z,7.60
2019-05-11T05:08:49.673Z,7.70
2019-05-11T05:11:18.090Z,7.80
2019-05-11T05:13:46.510Z,7.90
2019-05-11T05:16:14.933Z,7.90
2019-05-11T05:18:43.348Z,7.90
2019-05-11T05:21:11.782Z,8.00
2019-05-11T05:23:40.209Z,8.00
2019-05-11T05:26:08.629Z,8.10
2019-05-11T05:28:37.057Z,8.10
2019-05-11T05:31:05.490Z,8.20
2019-05-11T05:33:33.904Z,8.10
2019-05-11T05:36:02.578Z,8.20
2019-05-11T05:38:31.253Z,8.10
2019-05-11T05:40:59.685Z,8.10
2019-05-11T05:43:28.593Z,8.20
2019-05-11T05:45:57.232Z,8.10
2019-05-11T05:48:25.657Z,8.20
2019-05-11T05:50:54.089Z,8.20
2019-05-11T05:53:22.504Z,8.20
2019-05-11T05:55:50.932Z,8.30
2019-05-11T05:58:19.393Z,8.40
2019-05-11T06:00:47.817Z,8.40
2019-05-11T06:03:16.233Z,8.50
2019-05-11T06:05:44.680Z,8.50
2019-05-11T06:08:13.122Z,8.50
2019-05-11T06:10:41.549Z,8.50
2019-05-11T06:13:09.960Z,8.50
2019-05-11T06:15:38.394Z,8.50
2019-05-11T06:18:07.073Z,8.50
2019-05-11T06:20:35.497Z,8.60
2019-05-11T06:23:03.925Z,8.70
2019-05-11T06:25:32.343Z,8.70
2019-05-11T06:28:00.778Z,8.70
2019-05-11T06:30:30.842Z,8.80
2019-05-11T06:32:59.265Z,8.80
2019-05-11T06:35:27.685Z,9.00
2019-05-11T06:37:56.117Z,9.10
2019-05-11T06:40:28.019Z,9.10
2019-05-11T06:42:54.709Z,9.10
2019-05-11T06:45:23.133Z,9.30
2019-05-11T06:47:51.561Z,9.30
2019-05-11T06:50:20.049Z,9.40
2019-05-11T06:52:49.041Z,9.30
2019-05-11T06:55:17.514Z,9.30
2019-05-11T06:57:45.942Z,9.20
2019-05-11T07:00:14.894Z,9.40
2019-05-11T07:02:43.322Z,9.40
2019-05-11T07:05:11.817Z,9.40
2019-05-11T07:07:47.450Z,9.50
2019-05-11T07:10:11.349Z,9.50
2019-05-11T07:12:39.825Z,9.50
2019-05-11T07:15:08.394Z,9.60
2019-05-11T07:17:36.829Z,9.70
2019-05-11T07:20:08.389Z,9.80
2019-05-11T07:22:36.884Z,9.90
2019-05-11T07:25:06.915Z,9.90
2019-05-11T07:27:35.608Z,9.90
2019-05-11T07:30:06.937Z,9.70
2019-05-11T07:32:37.909Z,9.60
2019-05-11T07:35:08.427Z,9.80
2019-05-11T07:37:38.489Z,9.90
2019-05-11T07:40:08.281Z,10.10
2019-05-11T07:42:37.961Z,10.10
2019-05-11T07:45:09.661Z,10.10
2019-05-11T07:47:38.205Z,10.20
2019-05-11T07:50:09.102Z,10.20
2019-05-11T07:52:37.933Z,10.20
2019-05-11T07:55:08.496Z,10.30
2019-05-11T07:57:38.994Z,10.30
2019-05-11T08:00:08.078Z,10.40
2019-05-11T08:02:38.733Z,10.50
2019-05-11T08:05:08.726Z,10.50
2019-05-11T08:07:37.949Z,10.60
2019-05-11T08:10:08.381Z,10.60
2019-05-11T08:12:39.149Z,10.50
2019-05-11T08:15:12.339Z,10.40
2019-05-11T08:17:38.143Z,10.40
2019-05-11T08:20:08.453Z,10.40
2019-05-11T08:22:37.695Z,10.50
2019-05-11T08:25:09.178Z,10.60
2019-05-11T08:27:38.026Z,10.60
2019-05-11T08:30:11.267Z,10.60
2019-05-11T08:32:39.709Z,10.80
2019-05-11T08:35:09.476Z,10.80
2019-05-11T08:37:38.809Z,10.90
2019-05-11T08:40:08.081Z,11.00
2019-05-11T08:42:37.898Z,11.00
2019-05-11T08:45:18.803Z,11.10
2019-05-11T08:47:37.771Z,11.00
2019-05-11T08:50:08.140Z,11.10
2019-05-11T08:52:38.705Z,11.00
2019-05-11T08:55:08.490Z,11.10
2019-05-11T08:57:38.732Z,11.00
2019-05-11T09:00:09.181Z,11.10
2019-05-11T09:02:38.349Z,11.00
2019-05-11T09:05:08.162Z,11.00
2019-05-11T09:07:38.407Z,11.10
2019-05-11T09:10:08.166Z,11.10
2019-05-11T09:12:38.196Z,11.20
2019-05-11T09:15:08.821Z,11.10
2019-05-11T09:17:38.204Z,11.20
2019-05-11T09:20:08.670Z,11.10
2019-05-11T09:22:38.161Z,11.20
2019-05-11T09:25:08.795Z,11.20
2019-05-11T09:27:37.765Z,11.40
2019-05-11T09:30:08.282Z,11.40
2019-05-11T09:32:38.530Z,11.60
2019-05-11T09:35:08.304Z,11.80
2019-05-11T09:37:38.082Z,11.90
2019-05-11T09:40:07.902Z,11.90
2019-05-11T09:42:38.665Z,11.80
2019-05-11T09:45:07.981Z,11.80
2019-05-11T09:47:38.607Z,11.90
2019-05-11T09:50:08.635Z,11.90
2019-05-11T09:52:38.461Z,11.90
2019-05-11T09:55:08.776Z,12.00
2019-05-11T09:57:38.182Z,12.10
2019-05-11T10:00:08.713Z,12.20
2019-05-11T10:02:38.509Z,12.30
2019-05-11T10:05:08.616Z,12.30
2019-05-11T10:07:38.063Z,12.20
2019-05-11T10:10:09.118Z,12.20
2019-05-11T10:12:38.196Z,12.40
2019-05-11T10:15:08.335Z,12.60
2019-05-11T10:17:38.221Z,12.60
2019-05-11T10:20:09.314Z,12.60
2019-05-11T10:22:38.484Z,12.60
2019-05-11T10:25:08.890Z,12.50
2019-05-11T10:27:38.436Z,12.60
2019-05-11T10:30:08.293Z,12.60
2019-05-11T10:32:37.930Z,12.60
2019-05-11T10:35:08.167Z,12.70
2019-05-11T10:37:38.942Z,12.70
2019-05-11T10:40:09.556Z,12.70
2019-05-11T10:42:38.009Z,12.60
2019-05-11T10:45:09.060Z,12.50
2019-05-11T10:47:38.327Z,12.50
2019-05-11T10:50:08.571Z,12.60
2019-05-11T10:52:37.886Z,12.70
2019-05-11T10:55:08.671Z,12.80
2019-05-11T10:57:38.690Z,12.80
2019-05-11T11:00:08.646Z,12.80
2019-05-11T11:02:38.423Z,12.90
2019-05-11T11:05:08.224Z,12.80
2019-05-11T11:07:38.312Z,13.00
2019-05-11T11:10:08.896Z,13.10
2019-05-11T11:12:38.453Z,13.20
2019-05-11T11:15:09.031Z,13.40
2019-05-11T11:17:38.170Z,13.30
2019-05-11T11:20:08.603Z,13.10
2019-05-11T11:22:43.646Z,13.20
2019-05-11T11:25:08.030Z,13.10
2019-05-11T11:27:38.133Z,13.20
2019-05-11T11:30:09.218Z,13.20
2019-05-11T11:32:38.338Z,13.30
2019-05-11T11:35:08.593Z,13.20
2019-05-11T11:37:38.743Z,13.40
2019-05-11T11:40:09.203Z,13.40
2019-05-11T11:42:37.821Z,13.50
2019-05-11T11:45:10.452Z,13.50
2019-05-11T11:47:38.874Z,13.40
2019-05-11T11:50:09.255Z,13.50
2019-05-11T11:52:38.395Z,13.70
2019-05-11T11:55:08.635Z,13.80
2019-05-11T11:57:38.026Z,13.90
2019-05-11T12:00:09.176Z,14.00
2019-05-11T12:02:38.822Z,14.20
2019-05-11T12:05:09.200Z,13.90
2019-05-11T12:07:38.605Z,14.00
2019-05-11T12:10:08.060Z,13.90
2019-05-11T12:12:38.721Z,14.10
2019-05-11T12:15:09.005Z,14.30
2019-05-11T12:17:37.761Z,14.50
2019-05-11T12:20:08.958Z,14.70
2019-05-11T12:22:38.618Z,14.90
2019-05-11T12:25:07.950Z,15.00
2019-05-11T12:27:38.439Z,15.00
2019-05-11T12:30:09.182Z,15.20
2019-05-11T12:32:39.253Z,15.20
2019-05-11T12:35:08.688Z,14.80
2019-05-11T12:37:37.796Z,14.70
2019-05-11T12:40:08.401Z,14.50
2019-05-11T12:42:38.073Z,14.70
2019-05-11T12:45:10.906Z,14.70
2019-05-11T12:47:39.345Z,14.80
2019-05-11T12:50:08.900Z,14.70
2019-05-11T12:52:38.288Z,14.70
2019-05-11T12:55:08.746Z,14.80
2019-05-11T12:57:38.574Z,14.80
2019-05-11T13:00:08.647Z,14.80
2019-05-11T13:02:38.849Z,14.80
2019-05-11T13:05:08.685Z,14.80
2019-05-11T13:07:39.295Z,14.80
2019-05-11T13:10:08.393Z,14.70
2019-05-11T13:12:38.564Z,14.80
2019-05-11T13:15:08.561Z,14.90
2019-05-11T13:17:40.156Z,14.90
2019-05-11T13:20:08.690Z,14.80
2019-05-11T13:22:38.218Z,14.70
2019-05-11T13:25:08.562Z,14.80
2019-05-11T13:27:38.713Z,14.90
2019-05-11T13:30:08.647Z,14.90
2019-05-11T13:32:38.427Z,15.10
2019-05-11T13:35:09.090Z,15.00
2019-05-11T13:37:38.697Z,15.00
2019-05-11T13:40:08.340Z,15.30
2019-05-11T13:42:38.557Z,15.40
2019-05-11T13:45:08.542Z,15.50
2019-05-11T13:47:49.344Z,15.50
2019-05-11T13:50:07.874Z,15.40
2019-05-11T13:52:38.606Z,15.60
2019-05-11T13:55:07.856Z,15.50
2019-05-11T13:57:37.970Z,15.30
2019-05-11T14:00:08.369Z,15.40
2019-05-11T14:02:37.967Z,15.00
2019-05-11T14:05:08.800Z,15.00
2019-05-11T14:07:38.099Z,15.10
2019-05-11T14:10:08.127Z,15.40
2019-05-11T14:12:38.504Z,15.40
2019-05-11T14:15:08.898Z,15.40
2019-05-11T14:17:37.992Z,15.40
2019-05-11T14:20:10.026Z,15.30
2019-05-11T14:22:39.161Z,15.50
2019-05-11T14:25:08.163Z,15.60
2019-05-11T14:27:38.863Z,15.50
2019-05-11T14:30:08.642Z,15.40
2019-05-11T14:32:38.940Z,15.70
2019-05-11T14:35:11.901Z,15.60
2019-05-11T14:37:38.053Z,15.70
2019-05-11T14:40:08.886Z,15.80
2019-05-11T14:42:38.189Z,15.80
2019-05-11T14:45:08.603Z,15.70
2019-05-11T14:47:38.611Z,15.60
2019-05-11T14:50:08.677Z,15.60
2019-05-11T14:52:38.979Z,15.80
2019-05-11T14:55:08.197Z,16.10
2019-05-11T14:57:39.329Z,16.30
2019-05-11T15:00:08.332Z,16.20
2019-05-11T15:02:48.593Z,16.20
2019-05-11T15:05:18.493Z,16.40
2019-05-11T15:07:47.952Z,16.30
2019-05-11T15:10:18.700Z,16.30
2019-05-11T15:12:48.904Z,16.00
2019-05-11T15:15:18.721Z,15.70
2019-05-11T15:17:49.367Z,15.90
2019-05-11T15:20:17.949Z,16.30
2019-05-11T15:22:48.628Z,17.10
2019-05-11T15:25:19.444Z,17.50
2019-05-11T15:27:48.702Z,18.00
2019-05-11T15:30:18.353Z,19.10
2019-05-11T15:32:48.212Z,19.90
2019-05-11T15:35:18.515Z,20.90
2019-05-11T15:37:47.875Z,22.40
2019-05-11T15:40:21.335Z,23.30
2019-05-11T15:42:49.752Z,25.10
2019-05-11T15:45:19.057Z,25.80
2019-05-11T15:47:48.749Z,24.10
2019-05-11T15:50:18.982Z,21.90
2019-05-11T15:52:48.710Z,20.90
2019-05-11T15:55:18.847Z,20.50
2019-05-11T15:57:48.301Z,20.20
2019-05-11T16:00:17.420Z,20.30
2019-05-11T16:02:48.702Z,21.50
2019-05-11T16:05:18.254Z,22.30
2019-05-11T16:07:48.887Z,21.60
2019-05-11T16:10:18.784Z,19.90
2019-05-11T16:12:48.652Z,20.10
2019-05-11T16:15:19.131Z,20.60
2019-05-11T16:17:48.748Z,21.20
2019-05-11T16:20:18.302Z,22.30
2019-05-11T16:22:47.958Z,21.40
2019-05-11T16:25:19.270Z,19.70
2019-05-11T16:27:46.918Z,19.00
2019-05-11T16:30:20.876Z,16.20
2019-05-11T16:32:47.823Z,19.20
2019-05-11T16:35:18.064Z,19.30
2019-05-11T16:37:48.393Z,18.50
2019-05-11T16:40:20.197Z,18.00
2019-05-11T16:42:47.832Z,17.70
2019-05-11T16:45:19.074Z,17.20
2019-05-11T16:47:48.289Z,17.10
2019-05-11T16:50:18.075Z,17.90
2019-05-11T16:52:48.245Z,19.30
2019-05-11T16:55:18.307Z,19.90
2019-05-11T16:57:48.363Z,20.40
2019-05-11T17:00:17.787Z,21.10
2019-05-11T17:02:48.659Z,21.20
2019-05-11T17:05:25.903Z,21.60
2019-05-11T17:07:48.341Z,22.10
2019-05-11T17:10:17.934Z,21.70
2019-05-11T17:12:48.337Z,21.50
2019-05-11T17:15:18.489Z,20.70
2019-05-11T17:17:48.684Z,19.70
2019-05-11T17:20:18.865Z,19.40
2019-05-11T17:22:48.193Z,19.70
2019-05-11T17:25:19.111Z,19.40
2019-05-11T17:27:48.717Z,19.70
2019-05-11T17:30:19.372Z,19.30
2019-05-11T17:32:49.145Z,18.80
2019-05-11T17:35:17.975Z,18.60
2019-05-11T17:37:48.629Z,18.50
2019-05-11T17:40:20.438Z,18.60
2019-05-11T17:42:47.969Z,19.00
2019-05-11T17:45:18.860Z,19.10
2019-05-11T17:47:46.997Z,18.90
2019-05-11T17:50:15.591Z,19.10
2019-05-11T17:52:44.020Z,18.80
2019-05-11T17:55:12.575Z,18.60
2019-05-11T17:57:41.365Z,18.40
2019-05-11T18:00:10.127Z,17.80
2019-05-11T18:02:39.075Z,17.50
2019-05-11T18:05:08.970Z,16.90
2019-05-11T18:07:38.556Z,16.90
2019-05-11T18:10:08.179Z,16.80
2019-05-11T18:12:38.851Z,15.30
2019-05-11T18:15:08.205Z,16.30
2019-05-11T18:17:36.861Z,15.90
2019-05-11T18:20:17.238Z,15.60
2019-05-11T18:22:39.116Z,15.30
2019-05-11T18:25:08.776Z,15.10
2019-05-11T18:27:38.679Z,15.00
2019-05-11T18:30:08.912Z,14.70
2019-05-11T18:32:39.744Z,14.40
2019-05-11T18:35:08.832Z,14.20
2019-05-11T18:37:39.072Z,14.00
2019-05-11T18:40:08.560Z,13.90
2019-05-11T18:42:38.331Z,13.70
2019-05-11T18:45:08.336Z,13.70
2019-05-11T18:47:38.142Z,13.60
2019-05-11T18:50:08.556Z,13.60
2019-05-11T18:52:37.270Z,13.40
2019-05-11T18:55:08.461Z,13.30
2019-05-11T18:57:38.359Z,13.10
2019-05-11T19:00:10.127Z,12.90
2019-05-11T19:02:38.899Z,12.70
2019-05-11T19:05:07.685Z,12.60
2019-05-11T19:07:38.585Z,12.50
2019-05-11T19:10:08.634Z,12.40
2019-05-11T19:12:37.755Z,12.40
2019-05-11T19:15:08.309Z,12.20
2019-05-11T19:17:38.566Z,12.10
2019-05-11T19:20:09.253Z,12.00
2019-05-11T19:22:38.615Z,12.00
2019-05-11T19:25:08.982Z,11.90
2019-05-11T19:27:38.194Z,11.80
2019-05-11T19:30:09.961Z,11.70
2019-05-11T19:32:39.059Z,11.70
2019-05-11T19:35:08.859Z,11.70
2019-05-11T19:37:39.074Z,11.60
2019-05-11T19:40:09.333Z,11.60
2019-05-11T19:42:59.151Z,11.60
2019-05-11T19:45:29.401Z,11.50
2019-05-11T19:47:58.427Z,11.40
2019-05-11T19:50:27.741Z,11.40
2019-05-11T19:52:57.978Z,11.30
2019-05-11T19:55:28.596Z,11.10
2019-05-11T19:57:57.452Z,11.10
2019-05-11T20:00:26.255Z,11.00
2019-05-11T20:02:55.051Z,11.00
2019-05-11T20:05:23.872Z,10.90
2019-05-11T20:07:52.353Z,10.80
2019-05-11T20:10:20.806Z,10.70
2019-05-11T20:12:49.247Z,10.60
2019-05-11T20:15:18.818Z,10.60
2019-05-11T20:17:48.635Z,10.50
2019-05-11T20:20:18.417Z,10.50
2019-05-11T20:22:48.186Z,10.40
2019-05-11T20:25:18.494Z,10.30
2019-05-11T20:27:48.337Z,10.30
2019-05-11T20:30:18.549Z,10.20
2019-05-11T20:32:48.408Z,10.10
2019-05-11T20:35:17.204Z,10.10
2019-05-11T20:37:45.744Z,10.10
2019-05-11T20:40:14.348Z,10.00
2019-05-11T20:42:42.770Z,10.00
2019-05-11T20:45:11.462Z,9.90
2019-05-11T20:47:39.885Z,9.80
2019-05-11T20:50:08.383Z,9.70
2019-05-11T20:52:39.047Z,9.70
2019-05-11T20:55:08.944Z,9.60
2019-05-11T20:57:39.184Z,9.60
2019-05-11T21:00:08.536Z,9.50
2019-05-11T21:02:38.113Z,9.50
2019-05-11T21:05:09.179Z,9.40
2019-05-11T21:07:38.742Z,9.40
2019-05-11T21:10:08.784Z,9.30
2019-05-11T21:12:38.494Z,9.40
2019-05-11T21:15:08.094Z,9.30
2019-05-11T21:17:36.560Z,9.30
2019-05-11T21:20:08.397Z,9.20
2019-05-11T21:22:40.118Z,9.10
2019-05-11T21:25:10.676Z,9.10
2019-05-11T21:27:39.098Z,9.10
2019-05-11T21:30:09.112Z,9.00
2019-05-11T21:32:38.829Z,9.00
2019-05-11T21:35:08.847Z,9.00
2019-05-11T21:37:38.781Z,8.90
2019-05-11T21:40:09.212Z,8.80
2019-05-11T21:42:38.937Z,8.70
2019-05-11T21:45:09.455Z,8.60
2019-05-11T21:47:38.828Z,8.60
2019-05-11T21:50:08.960Z,8.50
2019-05-11T21:52:38.436Z,8.50
2019-05-11T21:55:09.493Z,8.50
2019-05-11T21:57:38.471Z,8.50
2019-05-11T22:00:09.244Z,8.40
2019-05-11T22:02:38.600Z,8.40
2019-05-11T22:05:08.173Z,8.30
2019-05-11T22:07:38.993Z,8.30
2019-05-11T22:10:08.978Z,8.20
2019-05-11T22:12:38.726Z,8.20
2019-05-11T22:15:09.132Z,8.20
2019-05-11T22:17:39.367Z,8.10
2019-05-11T22:20:08.577Z,8.10
2019-05-11T22:22:38.888Z,8.00
2019-05-11T22:25:08.890Z,7.90
2019-05-11T22:27:38.953Z,7.90
2019-05-11T22:30:09.835Z,7.90
2019-05-11T22:32:38.776Z,7.80
2019-05-11T22:35:09.559Z,7.80
2019-05-11T22:37:39.047Z,7.80
2019-05-11T22:40:08.591Z,7.80
2019-05-11T22:42:37.411Z,7.70
2019-05-11T22:45:08.933Z,7.60
2019-05-11T22:47:39.185Z,7.70
2019-05-11T22:50:09.069Z,7.60
2019-05-11T22:52:40.301Z,7.50
2019-05-11T22:55:08.990Z,7.60
2019-05-11T22:57:38.312Z,7.50
2019-05-11T23:00:08.311Z,7.50
2019-05-11T23:02:38.002Z,7.40
2019-05-11T23:05:08.523Z,7.40
2019-05-11T23:07:41.282Z,7.40
2019-05-11T23:10:09.867Z,7.40
2019-05-11T23:12:38.804Z,7.30
2019-05-11T23:15:12.180Z,7.30
2019-05-11T23:17:40.792Z,7.30
2019-05-11T23:20:11.052Z,7.30
2019-05-11T23:22:57.006Z,7.20
2019-05-11T23:25:19.006Z,7.30
2019-05-11T23:27:48.525Z,7.30
2019-05-11T23:30:19.662Z,7.20
2019-05-11T23:32:48.659Z,7.20
2019-05-11T23:35:18.850Z,7.20
2019-05-11T23:37:49.602Z,7.30
2019-05-11T23:40:18.304Z,7.20
2019-05-11T23:42:49.106Z,7.30
2019-05-11T23:45:18.903Z,7.30
2019-05-11T23:47:48.594Z,7.20
2019-05-11T23:50:18.878Z,7.20
2019-05-11T23:52:50.106Z,7.20
2019-05-11T23:55:19.109Z,7.40
2019-05-11T23:57:48.756Z,7.20
